createdAt,value
2022-10-21T00:01:23.986Z,5.00
2022-10-21T00:03:51.391Z,6.25
2022-10-21T00:06:20.089Z,5.75
2022-10-21T00:08:47.519Z,5.00
2022-10-21T00:11:14.975Z,5.00
2022-10-21T00:13:42.369Z,4.25
2022-10-21T00:16:10.802Z,4.75
2022-10-21T00:18:38.725Z,6.00
2022-10-21T00:21:06.996Z,4.00
2022-10-21T00:23:35.760Z,6.00
2022-10-21T00:26:03.154Z,6.50
2022-10-21T00:28:30.540Z,5.25
2022-10-21T00:30:58.419Z,5.00
2022-10-21T00:33:26.131Z,5.00
2022-10-21T00:35:53.831Z,4.75
2022-10-21T00:40:50.966Z,4.50
2022-10-21T00:43:18.394Z,5.00
2022-10-21T00:45:45.797Z,5.00
2022-10-21T00:48:15.833Z,5.00
2022-10-21T00:50:45.902Z,4.25
2022-10-21T00:53:14.598Z,5.75
2022-10-21T00:55:44.621Z,5.50
2022-10-21T00:58:13.304Z,5.25
2022-10-21T01:00:40.770Z,5.00
2022-10-21T01:03:08.202Z,4.00
2022-10-21T01:05:36.994Z,5.00
2022-10-21T01:08:04.601Z,6.00
2022-10-21T01:10:32.000Z,5.00
2022-10-21T01:13:07.456Z,5.00
2022-10-21T01:15:37.505Z,5.00
2022-10-21T01:18:08.698Z,4.25
2022-10-21T01:21:15.558Z,5.00
2022-10-21T01:24:24.580Z,5.00
2022-10-21T01:27:01.035Z,4.25
2022-10-21T01:29:37.671Z,5.00
2022-10-21T01:32:08.009Z,5.00
2022-10-21T01:34:37.322Z,5.00
2022-10-21T01:37:08.151Z,4.00
2022-10-21T01:39:39.464Z,5.00
2022-10-21T01:44:40.715Z,6.50
2022-10-21T01:47:11.676Z,4.00
2022-10-21T01:49:39.747Z,4.00
2022-10-21T01:52:07.571Z,5.00
2022-10-21T01:54:35.933Z,6.00
2022-10-21T01:57:03.324Z,4.00
2022-10-21T01:59:31.719Z,5.75
2022-10-21T02:01:59.445Z,5.00
2022-10-21T02:04:28.129Z,3.50
2022-10-21T02:06:55.522Z,4.25
2022-10-21T02:09:22.997Z,4.75
2022-10-21T02:11:51.354Z,4.25
2022-10-21T02:14:20.609Z,5.00
2022-10-21T02:16:48.010Z,4.75
2022-10-21T02:19:15.918Z,5.00
2022-10-21T02:21:44.752Z,5.00
2022-10-21T02:24:14.350Z,4.50
2022-10-21T02:26:41.734Z,5.50
2022-10-21T02:29:09.113Z,6.00
2022-10-21T02:31:50.655Z,5.25
2022-10-21T02:34:21.423Z,4.75
2022-10-21T02:36:53.311Z,4.00
2022-10-21T02:39:33.450Z,5.00
2022-10-21T02:42:01.126Z,5.00
2022-10-21T02:44:28.510Z,5.00
2022-10-21T02:46:55.897Z,5.33
2022-10-21T02:49:23.278Z,4.00
2022-10-21T02:51:51.959Z,5.00
2022-10-21T02:54:19.335Z,3.67
2022-10-21T02:56:46.738Z,5.00
2022-10-21T02:59:14.147Z,4.33
2022-10-21T03:01:41.568Z,3.33
2022-10-21T03:04:08.979Z,4.00
2022-10-21T03:06:36.390Z,4.67
2022-10-21T03:09:05.974Z,4.00
2022-10-21T03:11:33.387Z,4.00
2022-10-21T03:14:00.793Z,2.00
2022-10-21T03:16:28.167Z,3.00
2022-10-21T03:18:55.556Z,3.00
2022-10-21T03:21:22.967Z,4.00
2022-10-21T03:23:50.377Z,5.50
2022-10-21T03:26:19.062Z,4.00
2022-10-21T03:28:46.451Z,5.00
2022-10-21T03:31:13.848Z,4.50
2022-10-21T03:33:41.246Z,4.75
2022-10-21T03:36:08.756Z,4.00
2022-10-21T03:38:36.160Z,0.25
2022-10-21T03:41:03.540Z,3.00
2022-10-21T03:43:32.219Z,4.00
2022-10-21T03:45:59.630Z,5.00
2022-10-21T03:48:27.025Z,3.75
2022-10-21T03:50:55.841Z,4.75
2022-10-21T03:53:38.272Z,4.00
2022-10-21T03:56:09.440Z,4.00
2022-10-21T03:58:38.095Z,3.00
2022-10-21T04:01:05.520Z,5.25
2022-10-21T04:03:32.907Z,4.50
2022-10-21T04:06:00.317Z,4.50
2022-10-21T04:08:27.753Z,4.00
2022-10-21T04:13:28.740Z,4.00
2022-10-21T04:15:59.573Z,3.25
2022-10-21T04:18:27.008Z,4.00
2022-10-21T04:20:54.407Z,5.00
2022-10-21T04:23:21.780Z,3.50
2022-10-21T04:25:49.168Z,3.00
2022-10-21T04:28:16.574Z,5.00
2022-10-21T04:30:43.966Z,3.00
2022-10-21T04:33:12.648Z,4.00
2022-10-21T04:35:40.064Z,3.00
2022-10-21T04:38:07.478Z,5.00
2022-10-21T04:40:35.016Z,3.50
2022-10-21T04:43:02.455Z,4.25
2022-10-21T04:45:29.854Z,4.00
2022-10-21T04:47:57.231Z,4.25
2022-10-21T04:50:25.960Z,4.00
2022-10-21T04:52:53.361Z,3.75
2022-10-21T04:55:20.756Z,2.75
2022-10-21T04:57:48.248Z,3.75
2022-10-21T05:00:16.096Z,3.25
2022-10-21T05:02:43.524Z,4.00
2022-10-21T05:05:10.928Z,3.25
2022-10-21T05:07:39.612Z,4.00
2022-10-21T05:10:07.371Z,4.00
2022-10-21T05:15:03.089Z,4.50
2022-10-21T05:17:30.480Z,4.00
2022-10-21T05:19:57.877Z,5.00
2022-10-21T05:22:25.276Z,2.00
2022-10-21T05:24:53.981Z,3.00
2022-10-21T05:27:21.388Z,5.00
2022-10-21T05:29:48.793Z,4.00
2022-10-21T05:32:16.262Z,3.75
2022-10-21T05:34:43.642Z,4.00
2022-10-21T05:37:11.027Z,4.25
2022-10-21T05:39:38.511Z,4.25
2022-10-21T05:42:07.231Z,2.75
2022-10-21T05:44:34.627Z,3.25
2022-10-21T05:47:02.027Z,4.33
2022-10-21T05:49:29.429Z,4.00
2022-10-21T05:51:56.910Z,3.67
2022-10-21T05:54:24.296Z,4.00
2022-10-21T05:56:52.020Z,3.00
2022-10-21T05:59:20.730Z,4.00
2022-10-21T06:01:48.126Z,5.00
2022-10-21T06:04:15.553Z,2.50
2022-10-21T06:06:42.946Z,4.00
2022-10-21T06:09:10.411Z,4.50
2022-10-21T06:11:37.865Z,3.00
2022-10-21T06:14:05.278Z,4.00
2022-10-21T06:16:35.213Z,4.00
2022-10-21T06:19:02.687Z,4.00
2022-10-21T06:21:30.143Z,4.00
2022-10-21T06:23:57.613Z,3.00
2022-10-21T06:26:25.055Z,3.75
2022-10-21T06:28:52.503Z,4.00
2022-10-21T06:31:21.500Z,4.25
2022-10-21T06:33:50.312Z,3.50
2022-10-21T06:36:17.765Z,4.00
2022-10-21T06:38:45.158Z,4.25
2022-10-21T06:41:13.658Z,4.00
2022-10-21T06:43:41.240Z,4.00
2022-10-21T06:46:09.336Z,4.00
2022-10-21T06:48:36.720Z,4.00
2022-10-21T06:51:07.069Z,4.67
2022-10-21T06:53:38.118Z,0.67
2022-10-21T06:56:07.911Z,5.00
2022-10-21T06:58:35.400Z,3.25
2022-10-21T07:01:16.452Z,4.00
2022-10-21T07:03:54.913Z,3.00
2022-10-21T07:06:23.634Z,5.00
2022-10-21T07:08:57.827Z,5.25
2022-10-21T07:11:26.200Z,4.00
2022-10-21T07:13:53.580Z,4.75
2022-10-21T07:16:22.673Z,4.00
2022-10-21T07:18:50.078Z,5.00
2022-10-21T07:21:18.542Z,4.00
2022-10-21T07:23:47.941Z,3.25
2022-10-21T07:26:15.528Z,4.00
2022-10-21T07:28:46.895Z,5.00
2022-10-21T07:31:14.605Z,5.25
2022-10-21T07:33:42.013Z,5.75
2022-10-21T07:36:10.425Z,5.00
2022-10-21T07:38:37.906Z,5.00
2022-10-21T07:41:06.759Z,3.25
2022-10-21T07:43:34.267Z,5.00
2022-10-21T07:46:04.412Z,4.50
2022-10-21T07:48:34.332Z,5.00
2022-10-21T07:51:03.943Z,4.25
2022-10-21T07:53:31.472Z,4.00
2022-10-21T07:56:03.227Z,5.50
2022-10-21T07:58:32.085Z,5.25
2022-10-21T08:01:10.565Z,5.00
2022-10-21T08:03:38.024Z,5.00
2022-10-21T08:06:05.715Z,5.00
2022-10-21T08:08:33.158Z,4.75
2022-10-21T08:11:00.634Z,6.00
2022-10-21T08:13:28.136Z,5.00
2022-10-21T08:15:57.442Z,4.75
2022-10-21T08:18:25.915Z,4.75
2022-10-21T08:20:53.397Z,6.00
2022-10-21T08:23:22.017Z,5.00
2022-10-21T08:25:49.587Z,6.25
2022-10-21T08:28:17.009Z,6.50
2022-10-21T08:30:44.581Z,4.50
2022-10-21T08:33:13.335Z,6.00
2022-10-21T08:35:40.822Z,6.00
2022-10-21T08:38:08.277Z,6.75
2022-10-21T08:40:39.690Z,6.75
2022-10-21T08:43:08.214Z,6.50
2022-10-21T08:45:38.875Z,6.00
2022-10-21T08:48:07.108Z,6.00
2022-10-21T08:50:37.476Z,5.75
2022-10-21T08:53:06.773Z,6.00
2022-10-21T08:55:35.660Z,7.00
2022-10-21T08:58:03.224Z,7.00
2022-10-21T09:00:32.985Z,7.00
2022-10-21T09:03:05.747Z,5.50
2022-10-21T09:05:44.428Z,6.50
2022-10-21T09:08:16.611Z,5.00
2022-10-21T09:10:52.127Z,7.00
2022-10-21T09:13:23.594Z,6.25
2022-10-21T09:15:55.503Z,9.00
2022-10-21T09:18:29.290Z,7.00
2022-10-21T09:21:04.671Z,7.75
2022-10-21T09:23:45.653Z,7.25
2022-10-21T09:26:19.359Z,8.00
2022-10-21T09:28:46.744Z,6.00
2022-10-21T09:31:15.592Z,8.00
2022-10-21T09:33:44.505Z,9.25
2022-10-21T09:36:13.954Z,9.00
2022-10-21T09:38:43.400Z,8.25
2022-10-21T09:41:12.604Z,8.75
2022-10-21T09:43:40.022Z,10.00
2022-10-21T09:46:07.402Z,10.00
2022-10-21T09:48:54.008Z,9.00
2022-10-21T09:51:29.260Z,9.75
2022-10-21T09:53:58.122Z,11.00
2022-10-21T09:56:27.864Z,10.00
2022-10-21T09:59:07.630Z,9.00
2022-10-21T10:01:35.366Z,9.00
2022-10-21T10:04:03.158Z,10.25
2022-10-21T10:06:33.597Z,11.00
2022-10-21T10:09:07.396Z,10.50
2022-10-21T10:11:34.843Z,13.00
2022-10-21T10:14:22.734Z,12.75
2022-10-21T10:16:50.139Z,12.75
2022-10-21T10:19:18.287Z,14.75
2022-10-21T10:21:48.018Z,14.00
2022-10-21T10:24:16.966Z,13.25
2022-10-21T10:26:44.398Z,13.50
2022-10-21T10:29:18.991Z,13.00
2022-10-21T10:31:49.541Z,12.50
2022-10-21T10:34:20.418Z,13.00
2022-10-21T10:36:49.098Z,15.00
2022-10-21T10:39:17.960Z,14.00
2022-10-21T10:41:47.055Z,13.00
2022-10-21T10:44:22.599Z,12.00
2022-10-21T10:46:54.390Z,12.25
2022-10-21T10:49:22.610Z,14.00
2022-10-21T10:52:05.036Z,14.00
2022-10-21T10:54:32.512Z,13.00
2022-10-21T10:57:01.316Z,14.25
2022-10-21T10:59:33.362Z,14.00
2022-10-21T11:02:03.783Z,13.75
2022-10-21T11:04:33.830Z,13.00
2022-10-21T11:07:06.279Z,13.00
2022-10-21T11:09:34.062Z,10.25
2022-10-21T11:12:02.112Z,13.50
2022-10-21T11:14:29.525Z,14.25
2022-10-21T11:17:01.816Z,16.75
2022-10-21T11:19:36.342Z,20.50
2022-10-21T11:22:11.723Z,26.50
2022-10-21T11:24:51.197Z,25.75
2022-10-21T11:27:24.565Z,26.75
2022-10-21T11:29:57.358Z,30.00
2022-10-21T11:32:29.764Z,28.75
2022-10-21T11:35:01.862Z,30.00
2022-10-21T11:37:38.344Z,30.50
2022-10-21T11:40:11.583Z,30.00
2022-10-21T11:42:41.496Z,31.00
2022-10-21T11:45:25.459Z,31.50
2022-10-21T11:47:55.329Z,33.00
2022-10-21T11:50:25.524Z,33.00
2022-10-21T11:53:12.388Z,32.00
2022-10-21T11:55:40.332Z,31.00
2022-10-21T11:58:16.205Z,31.50
2022-10-21T12:00:46.883Z,28.50
2022-10-21T12:03:29.444Z,30.50
2022-10-21T12:06:00.990Z,31.75
2022-10-21T12:08:32.349Z,30.25
2022-10-21T12:11:00.725Z,29.25
2022-10-21T12:13:29.116Z,29.75
2022-10-21T12:15:58.896Z,25.50
2022-10-21T12:18:27.404Z,27.75
2022-10-21T12:20:54.821Z,30.25
2022-10-21T12:23:23.339Z,26.25
2022-10-21T12:26:01.058Z,26.25
2022-10-21T12:28:30.555Z,25.00
2022-10-21T12:31:01.505Z,23.75
2022-10-21T12:33:37.289Z,25.75
2022-10-21T12:36:19.245Z,27.25
2022-10-21T12:38:48.941Z,27.00
2022-10-21T12:41:31.705Z,25.25
2022-10-21T12:44:04.416Z,25.75
2022-10-21T12:46:34.942Z,25.50
2022-10-21T12:49:06.472Z,25.00
2022-10-21T12:51:34.633Z,24.75
2022-10-21T12:54:07.133Z,27.00
2022-10-21T12:56:36.503Z,25.50
2022-10-21T12:59:06.143Z,25.00
2022-10-21T13:01:39.626Z,28.25
2022-10-21T13:04:11.270Z,27.50
2022-10-21T13:06:52.702Z,29.25
2022-10-21T13:09:40.315Z,28.75
2022-10-21T13:12:30.281Z,28.50
2022-10-21T13:14:58.291Z,26.00
2022-10-21T13:17:33.588Z,26.00
2022-10-21T13:20:47.075Z,30.00
2022-10-21T13:23:31.615Z,28.75
2022-10-21T13:26:14.559Z,28.25
2022-10-21T13:28:43.233Z,29.25
2022-10-21T13:31:10.651Z,29.75
2022-10-21T13:33:38.754Z,30.50
2022-10-21T13:36:10.329Z,29.75
2022-10-21T13:38:38.425Z,28.75
2022-10-21T13:41:07.123Z,29.50
2022-10-21T13:43:36.653Z,29.00
2022-10-21T13:46:07.017Z,27.25
2022-10-21T13:48:38.462Z,30.00
2022-10-21T13:51:10.203Z,25.25
2022-10-21T13:53:43.505Z,25.75
2022-10-21T13:56:19.521Z,27.25
2022-10-21T13:58:46.959Z,25.00
2022-10-21T14:01:18.497Z,25.00
2022-10-21T14:03:45.996Z,25.50
2022-10-21T14:06:17.970Z,22.25
2022-10-21T14:08:47.089Z,25.00
2022-10-21T14:11:17.389Z,25.00
2022-10-21T14:13:44.771Z,25.00
2022-10-21T14:16:13.552Z,27.00
2022-10-21T14:18:46.241Z,24.00
2022-10-21T14:21:16.332Z,22.75
2022-10-21T14:23:45.356Z,22.00
2022-10-21T14:26:12.776Z,22.25
2022-10-21T14:28:40.181Z,24.25
2022-10-21T14:33:43.326Z,20.25
2022-10-21T14:36:14.731Z,25.00
2022-10-21T14:38:44.753Z,22.75
2022-10-21T14:41:16.335Z,22.00
2022-10-21T14:43:44.680Z,22.75
2022-10-21T14:46:12.085Z,24.00
2022-10-21T14:48:39.914Z,23.00
2022-10-21T14:51:11.156Z,23.25
2022-10-21T14:53:44.804Z,23.75
2022-10-21T14:56:16.069Z,21.00
2022-10-21T14:58:46.842Z,23.25
2022-10-21T15:01:15.340Z,22.00
2022-10-21T15:03:43.469Z,23.50
2022-10-21T15:06:13.975Z,23.00
2022-10-21T15:08:42.677Z,23.50
2022-10-21T15:11:18.742Z,25.50
2022-10-21T15:14:08.170Z,25.75
2022-10-21T15:16:38.192Z,23.00
2022-10-21T15:19:08.544Z,23.50
2022-10-21T15:21:38.411Z,24.25
2022-10-21T15:24:18.008Z,24.75
2022-10-21T15:26:46.600Z,18.50
2022-10-21T15:29:15.027Z,23.75
2022-10-21T15:31:42.451Z,23.75
2022-10-21T15:34:11.634Z,23.50
2022-10-21T15:36:40.328Z,24.00
2022-10-21T15:39:09.324Z,21.00
2022-10-21T15:41:36.960Z,22.00
2022-10-21T15:44:06.136Z,22.75
2022-10-21T15:46:35.438Z,21.50
2022-10-21T15:49:06.712Z,22.75
2022-10-21T15:51:34.430Z,20.75
2022-10-21T15:54:03.098Z,22.50
2022-10-21T15:56:30.500Z,20.25
2022-10-21T15:58:57.883Z,19.50
2022-10-21T16:01:25.419Z,20.25
2022-10-21T16:03:52.892Z,21.50
2022-10-21T16:06:21.443Z,20.25
2022-10-21T16:08:49.350Z,18.75
2022-10-21T16:11:25.763Z,19.50
2022-10-21T16:14:02.423Z,21.75
2022-10-21T16:16:31.068Z,19.25
2022-10-21T16:18:59.257Z,21.75
2022-10-21T16:21:27.164Z,18.75
2022-10-21T16:23:55.718Z,18.00
2022-10-21T16:26:25.184Z,20.25
2022-10-21T16:28:53.592Z,18.00
2022-10-21T16:31:21.226Z,19.75
2022-10-21T16:33:48.682Z,20.25
2022-10-21T16:36:16.893Z,20.75
2022-10-21T16:38:44.862Z,18.00
2022-10-21T16:41:12.977Z,17.25
2022-10-21T16:43:41.847Z,18.00
2022-10-21T16:46:14.952Z,18.25
2022-10-21T16:48:42.892Z,17.50
2022-10-21T16:51:10.426Z,17.75
2022-10-21T16:53:37.899Z,20.00
2022-10-21T16:56:05.514Z,19.00
2022-10-21T16:58:32.908Z,18.25
2022-10-21T17:01:02.356Z,19.50
2022-10-21T17:03:29.895Z,22.00
2022-10-21T17:05:57.282Z,20.75
2022-10-21T17:08:24.690Z,26.75
2022-10-21T17:10:52.088Z,28.75
2022-10-21T17:13:19.503Z,27.25
2022-10-21T17:15:47.003Z,30.75
2022-10-21T17:18:15.982Z,31.00
2022-10-21T17:20:43.449Z,36.00
2022-10-21T17:23:10.917Z,39.00
2022-10-21T17:25:38.299Z,42.50
2022-10-21T17:28:06.888Z,46.67
2022-10-21T17:30:34.388Z,44.25
2022-10-21T17:33:01.807Z,44.50
2022-10-21T17:35:30.548Z,44.75
2022-10-21T17:37:57.961Z,46.33
2022-10-21T17:40:26.252Z,43.75
2022-10-21T17:42:53.873Z,43.50
2022-10-21T17:45:21.470Z,42.75
2022-10-21T17:47:49.647Z,40.25
2022-10-21T17:50:23.185Z,41.50
2022-10-21T17:52:52.010Z,40.25
2022-10-21T17:55:19.647Z,40.50
2022-10-21T17:57:47.118Z,35.75
2022-10-21T18:00:14.827Z,39.50
2022-10-21T18:02:42.388Z,37.50
2022-10-21T18:05:10.401Z,37.50
2022-10-21T18:07:38.089Z,35.25
2022-10-21T18:10:07.865Z,35.00
2022-10-21T18:12:35.971Z,36.00
2022-10-21T18:15:03.431Z,42.00
2022-10-21T18:17:30.848Z,42.50
2022-10-21T18:19:58.259Z,39.00
2022-10-21T18:22:25.687Z,39.00
2022-10-21T18:24:53.658Z,37.50
2022-10-21T18:27:22.352Z,38.25
2022-10-21T18:29:49.742Z,35.25
2022-10-21T18:32:17.147Z,36.75
2022-10-21T18:34:44.551Z,35.50
2022-10-21T18:37:11.947Z,35.25
2022-10-21T18:39:39.417Z,31.75
2022-10-21T18:42:06.951Z,34.00
2022-10-21T18:44:35.633Z,34.25
2022-10-21T18:47:05.541Z,32.25
2022-10-21T18:49:35.759Z,31.75
2022-10-21T18:52:03.158Z,32.50
2022-10-21T18:54:30.564Z,30.00
2022-10-21T18:56:57.966Z,31.00
2022-10-21T18:59:25.360Z,26.75
2022-10-21T19:01:54.825Z,29.75
2022-10-21T19:04:22.318Z,29.50
2022-10-21T19:06:49.737Z,28.00
2022-10-21T19:09:18.934Z,25.50
2022-10-21T19:11:46.857Z,24.75
2022-10-21T19:14:14.748Z,26.75
2022-10-21T19:16:42.287Z,23.00
2022-10-21T19:19:10.972Z,23.75
2022-10-21T19:21:38.561Z,23.00
2022-10-21T19:24:06.241Z,24.00
2022-10-21T19:26:34.119Z,22.00
2022-10-21T19:29:01.964Z,23.00
2022-10-21T19:31:30.761Z,21.25
2022-10-21T19:33:59.791Z,20.50
2022-10-21T19:36:28.522Z,23.00
2022-10-21T19:38:55.906Z,19.25
2022-10-21T19:41:23.294Z,21.75
2022-10-21T19:43:51.641Z,23.00
2022-10-21T19:46:23.449Z,23.50
2022-10-21T19:48:52.924Z,21.25
2022-10-21T19:51:21.430Z,21.25
2022-10-21T19:53:50.836Z,21.50
2022-10-21T19:56:20.934Z,22.75
2022-10-21T19:58:51.605Z,20.50
2022-10-21T20:01:19.976Z,17.25
2022-10-21T20:03:48.031Z,20.00
2022-10-21T20:06:16.271Z,21.75
2022-10-21T20:08:43.775Z,19.00
2022-10-21T20:11:13.691Z,18.25
2022-10-21T20:13:41.211Z,20.25
2022-10-21T20:16:08.606Z,22.25
2022-10-21T20:18:35.991Z,20.25
2022-10-21T20:21:06.605Z,19.50
2022-10-21T20:23:34.018Z,22.75
2022-10-21T20:26:01.537Z,20.00
2022-10-21T20:28:30.393Z,16.50
2022-10-21T20:30:58.099Z,20.25
2022-10-21T20:33:25.548Z,19.75
2022-10-21T20:35:53.086Z,18.25
2022-10-21T20:38:20.489Z,18.25
2022-10-21T20:40:52.992Z,20.00
2022-10-21T20:43:20.408Z,22.50
2022-10-21T20:45:49.156Z,30.75
2022-10-21T20:48:16.534Z,28.25
2022-10-21T20:50:43.938Z,25.75
2022-10-21T20:53:11.350Z,26.25
2022-10-21T20:55:38.731Z,30.25
2022-10-21T20:58:06.164Z,31.50
2022-10-21T21:00:33.577Z,33.00
2022-10-21T21:03:02.267Z,32.50
2022-10-21T21:05:29.660Z,33.00
2022-10-21T21:07:57.160Z,35.75
2022-10-21T21:10:24.623Z,42.25
2022-10-21T21:12:52.051Z,42.00
2022-10-21T21:15:19.520Z,43.25
2022-10-21T21:17:48.558Z,44.25
2022-10-21T21:20:17.311Z,43.50
2022-10-21T21:22:44.757Z,42.75
2022-10-21T21:25:12.171Z,44.25
2022-10-21T21:27:39.566Z,42.75
2022-10-21T21:30:07.812Z,47.00
2022-10-21T21:32:35.195Z,51.33
2022-10-21T21:35:05.228Z,48.33
2022-10-21T21:37:34.882Z,52.33
2022-10-21T21:40:02.288Z,51.33
2022-10-21T21:42:29.694Z,53.33
2022-10-21T21:44:57.154Z,51.00
2022-10-21T21:47:24.553Z,52.67
2022-10-21T21:49:51.976Z,53.00
2022-10-21T21:52:19.357Z,51.33
2022-10-21T21:54:49.193Z,52.00
2022-10-21T21:57:33.873Z,50.67
2022-10-21T22:00:01.273Z,50.67
2022-10-21T22:02:28.675Z,51.33
2022-10-21T22:04:56.091Z,52.67
2022-10-21T22:07:23.513Z,52.33
2022-10-21T22:09:52.191Z,52.33
2022-10-21T22:12:22.942Z,49.67
2022-10-21T22:14:50.684Z,50.67
2022-10-21T22:17:18.109Z,50.33
2022-10-21T22:19:45.546Z,50.00
2022-10-21T22:22:12.935Z,49.67
2022-10-21T22:24:40.410Z,50.67
2022-10-21T22:27:09.113Z,49.33
2022-10-21T22:29:36.572Z,51.33
2022-10-21T22:32:03.972Z,50.33
2022-10-21T22:34:31.396Z,51.33
2022-10-21T22:36:58.822Z,50.33
2022-10-21T22:39:26.381Z,52.00
2022-10-21T22:41:53.836Z,52.00
2022-10-21T22:44:22.698Z,51.00
2022-10-21T22:46:50.109Z,51.33
2022-10-21T22:49:17.615Z,53.33
2022-10-21T22:51:45.053Z,53.33
2022-10-21T22:54:29.686Z,54.00
2022-10-21T22:56:59.885Z,53.00
2022-10-21T22:59:28.617Z,54.67
2022-10-21T23:01:56.022Z,54.67
2022-10-21T23:04:23.431Z,60.33
2022-10-21T23:06:50.859Z,56.67
2022-10-21T23:09:18.308Z,62.00
2022-10-21T23:11:47.051Z,64.33
2022-10-21T23:14:14.480Z,64.00
2022-10-21T23:16:43.144Z,85.00
2022-10-21T23:21:42.933Z,85.25
2022-10-21T23:24:10.384Z,80.25
2022-10-21T23:26:37.802Z,78.25
2022-10-21T23:29:05.279Z,69.50
2022-10-21T23:31:32.697Z,78.75
2022-10-21T23:34:01.391Z,74.50
2022-10-21T23:36:28.783Z,77.00
2022-10-21T23:38:56.389Z,75.00
2022-10-21T23:41:23.937Z,72.50
2022-10-21T23:43:51.383Z,67.00
2022-10-21T23:46:18.826Z,70.25
2022-10-21T23:48:46.271Z,66.50
2022-10-21T23:51:14.996Z,65.50
2022-10-21T23:53:42.405Z,63.67
2022-10-21T23:56:09.787Z,58.67
2022-10-21T23:58:37.181Z,66.00
